Time;durP1;ratioP1;P1;durP2;ratioP2;P2;SDS_P1;SDS_P2;PMS_P1;PMS_P2;Temp;Humidity;BMP_temperature;BMP_pressure;BME280_temperature;BME280_humidity;BME280_pressure;Samples;Min_cycle;Max_cycle;Signal;HPM_P1;HPM_P2
2022/11/19 00:01:28;;;;;;;9.37;5.93;;;-1.50;99.90;;;;;;5019580;28;20227;-50
2022/11/19 00:03:55;;;;;;;5.30;4.80;;;-1.50;99.90;;;;;;5019152;28;20202;-54
2022/11/19 00:06:24;;;;;;;5.50;4.70;;;-1.60;99.90;;;;;;5020536;28;20204;-50
2022/11/19 00:08:52;;;;;;;6.57;4.97;;;-1.60;99.90;;;;;;5018161;28;20195;-51
2022/11/19 00:12:53;;;;;;;6.90;5.17;;;-1.70;99.90;;;;;;5020634;28;20561;-47
2022/11/19 00:14:07;;;;;;;7.00;5.17;;;-1.70;99.90;;;;;;5019218;28;20992;-50
2022/11/19 00:16:35;;;;;;;7.00;5.17;;;-1.70;99.90;;;;;;5008317;28;20669;-53
2022/11/19 00:19:02;;;;;;;8.90;6.70;;;-1.70;99.90;;;;;;5018710;28;20208;-53
2022/11/19 00:21:29;;;;;;;7.97;6.20;;;-1.70;99.90;;;;;;5022980;28;20211;-52
2022/11/19 00:23:57;;;;;;;8.30;5.83;;;-1.70;99.90;;;;;;5019475;28;20231;-55
2022/11/19 00:26:26;;;;;;;10.00;6.60;;;-1.70;99.90;;;;;;5022667;28;20572;-48
2022/11/19 00:28:52;;;;;;;8.47;6.63;;;-1.60;99.90;;;;;;5013911;28;20189;-50
2022/11/19 00:31:19;;;;;;;9.03;7.40;;;-1.60;99.90;;;;;;5001973;28;20730;-47
2022/11/19 00:33:49;;;;;;;14.23;7.43;;;-1.50;99.90;;;;;;5019140;28;20203;-52
2022/11/19 00:36:16;;;;;;;11.27;6.70;;;-1.60;99.90;;;;;;5015639;28;20247;-51
2022/11/19 00:38:43;;;;;;;11.60;7.60;;;-1.60;99.90;;;;;;5021944;28;20205;-54
2022/11/19 00:41:10;;;;;;;10.60;7.67;;;-1.60;99.90;;;;;;5014208;28;20196;-53
2022/11/19 00:43:49;;;;;;;12.47;7.30;;;-1.50;99.90;;;;;;5016651;28;20211;-52
2022/11/19 00:46:18;;;;;;;8.00;7.20;;;-1.50;99.90;;;;;;5002807;28;20212;-50
2022/11/19 00:48:45;;;;;;;11.67;7.87;;;-1.60;99.90;;;;;;5021627;28;20283;-51
2022/11/19 00:51:14;;;;;;;9.73;7.53;;;-1.60;99.90;;;;;;5020755;28;20196;-47
2022/11/19 00:53:41;;;;;;;11.40;7.90;;;-1.60;99.90;;;;;;5022098;28;20215;-52
2022/11/19 00:56:10;;;;;;;9.27;6.73;;;-1.60;99.90;;;;;;5019843;28;20926;-53
2022/11/19 00:58:38;;;;;;;8.03;6.20;;;-1.70;99.90;;;;;;5026830;28;20279;-50
2022/11/19 01:01:06;;;;;;;8.30;5.47;;;-1.80;99.90;;;;;;5009066;28;20215;-50
2022/11/19 01:03:33;;;;;;;8.13;5.67;;;-1.90;99.90;;;;;;5026126;28;20193;-48
2022/11/19 01:06:01;;;;;;;8.97;6.50;;;-1.80;99.90;;;;;;5018485;28;20212;-51
2022/11/19 01:08:29;;;;;;;8.00;5.50;;;-1.70;99.90;;;;;;5026797;28;20199;-52
2022/11/19 01:11:03;;;;;;;8.93;5.80;;;-1.80;99.90;;;;;;5022652;28;20303;-54
2022/11/19 01:13:36;;;;;;;5.87;5.00;;;-1.90;99.90;;;;;;5026271;28;20200;-50
2022/11/19 01:16:06;;;;;;;7.13;4.97;;;-2.00;99.90;;;;;;5008350;28;20464;-48
2022/11/19 01:18:34;;;;;;;6.53;5.37;;;-1.90;99.90;;;;;;5026086;28;20204;-46
2022/11/19 01:21:02;;;;;;;9.40;5.63;;;-1.80;99.90;;;;;;5022672;28;20900;-48
2022/11/19 01:23:31;;;;;;;7.83;5.40;;;-1.90;99.90;;;;;;5025981;28;20208;-50
2022/11/19 01:25:58;;;;;;;8.03;6.07;;;-1.90;99.90;;;;;;5022410;28;20220;-49
2022/11/19 01:28:25;;;;;;;8.60;5.20;;;-1.80;99.90;;;;;;5026342;28;20203;-51
2022/11/19 01:30:52;;;;;;;6.23;5.30;;;-1.80;99.90;;;;;;5023320;28;20278;-54
2022/11/19 01:33:21;;;;;;;10.13;6.40;;;-1.80;99.90;;;;;;5010439;28;20203;-49
2022/11/19 01:35:55;;;;;;;7.23;5.87;;;-1.80;99.90;;;;;;5023948;28;20243;-51
2022/11/19 01:38:22;;;;;;;9.60;5.77;;;-1.80;99.90;;;;;;5026202;28;20199;-49
2022/11/19 01:40:50;;;;;;;8.30;5.37;;;-1.80;99.90;;;;;;5024095;28;20199;-50
2022/11/19 01:43:17;;;;;;;6.33;4.90;;;-1.80;99.90;;;;;;5024574;28;20191;-49
2022/11/19 01:45:47;;;;;;;9.17;5.23;;;-1.90;99.90;;;;;;5024517;28;20307;-51
2022/11/19 01:48:19;;;;;;;6.97;6.27;;;-1.90;99.90;;;;;;5003629;28;20243;-47
2022/11/19 01:50:50;;;;;;;6.43;5.37;;;-1.90;99.90;;;;;;5022367;28;20223;-48
2022/11/19 01:53:20;;;;;;;7.70;6.63;;;-1.90;99.90;;;;;;5024417;28;20974;-50
2022/11/19 01:55:48;;;;;;;8.53;6.23;;;-1.90;99.90;;;;;;5023946;28;20220;-53
2022/11/19 01:58:19;;;;;;;7.40;6.20;;;-2.00;99.90;;;;;;5024114;28;20203;-49
2022/11/19 02:00:47;;;;;;;5.93;5.33;;;-2.00;99.90;;;;;;5024080;28;20204;-51
2022/11/19 02:03:15;;;;;;;9.03;6.00;;;-2.00;99.90;;;;;;5008760;28;20208;-47
2022/11/19 02:05:42;;;;;;;7.37;5.80;;;-2.00;99.90;;;;;;5024706;28;20236;-52
2022/11/19 02:08:34;;;;;;;8.47;5.87;;;-1.90;99.90;;;;;;5022273;28;20226;-46
2022/11/19 02:11:28;;;;;;;8.57;5.53;;;-1.90;99.90;;;;;;5021403;28;20212;-49
2022/11/19 02:14:05;;;;;;;7.33;5.20;;;-2.00;99.90;;;;;;5016936;28;20216;-52
2022/11/19 02:16:38;;;;;;;6.23;5.13;;;-2.20;99.90;;;;;;5025627;28;20219;-50
2022/11/19 02:19:17;;;;;;;7.70;5.10;;;-2.20;99.90;;;;;;5007023;28;20200;-46
2022/11/19 02:21:54;;;;;;;6.97;5.60;;;-2.30;99.90;;;;;;5023716;28;20211;-50
2022/11/19 02:24:44;;;;;;;8.70;5.63;;;-2.30;99.90;;;;;;5024918;28;20230;-49
2022/11/19 02:27:37;;;;;;;7.40;5.77;;;-2.30;99.90;;;;;;5022801;28;20215;-48
2022/11/19 02:30:11;;;;;;;6.37;5.47;;;-2.40;99.90;;;;;;5021571;28;20324;-48
2022/11/19 02:32:49;;;;;;;5.37;4.80;;;-2.40;99.90;;;;;;5023650;28;20668;-48
2022/11/19 02:35:22;;;;;;;7.13;5.27;;;-2.30;99.90;;;;;;5018324;28;20567;-52
2022/11/19 02:37:58;;;;;;;7.63;5.17;;;-2.40;99.90;;;;;;5022697;28;20215;-52
2022/11/19 02:40:28;;;;;;;7.57;5.57;;;-2.50;99.90;;;;;;5024994;28;20572;-48
2022/11/19 02:43:04;;;;;;;8.97;5.13;;;-2.40;99.90;;;;;;5021105;28;20211;-52
2022/11/19 02:45:36;;;;;;;7.10;5.43;;;-2.40;99.90;;;;;;5018440;28;20263;-48
2022/11/19 02:48:08;;;;;;;5.93;5.30;;;-2.30;99.90;;;;;;5000295;28;20382;-47
2022/11/19 02:50:39;;;;;;;5.97;5.07;;;-2.40;99.90;;;;;;5024575;28;20219;-49
2022/11/19 02:53:06;;;;;;;10.90;5.43;;;-2.40;99.90;;;;;;5021122;28;20215;-46
2022/11/19 02:55:36;;;;;;;7.33;5.33;;;-2.30;99.90;;;;;;5024680;28;20230;-46
2022/11/19 02:58:08;;;;;;;8.50;6.23;;;-2.30;99.90;;;;;;5020791;28;20226;-46
2022/11/19 03:06:18;;;;;;;7.60;5.20;;;-2.50;99.90;;;;;;5017576;28;20223;-51
2022/11/19 03:08:46;;;;;;;7.00;5.00;;;-2.50;99.90;;;;;;5023208;28;20231;-47
2022/11/19 03:11:20;;;;;;;7.23;5.10;;;-2.60;99.90;;;;;;5022241;28;20216;-53
2022/11/19 03:16:41;;;;;;;6.90;5.40;;;-2.50;99.90;;;;;;5022909;28;20228;-50
2022/11/19 03:19:13;;;;;;;6.27;4.70;;;-2.60;99.90;;;;;;5015024;28;20204;-47
2022/11/19 03:21:47;;;;;;;7.37;4.70;;;-2.50;99.90;;;;;;5008384;28;20606;-52
2022/11/19 03:24:19;;;;;;;5.60;4.77;;;-2.50;99.90;;;;;;5022074;28;20210;-48
2022/11/19 03:26:51;;;;;;;7.23;4.93;;;-2.60;99.90;;;;;;5022547;28;20216;-49
2022/11/19 03:29:19;;;;;;;7.63;5.50;;;-2.70;99.90;;;;;;5023181;28;20246;-49
2022/11/19 03:31:51;;;;;;;4.60;4.20;;;-2.70;99.90;;;;;;5021974;28;20219;-49
2022/11/19 03:34:22;;;;;;;6.30;4.93;;;-2.70;99.90;;;;;;5018583;28;20220;-48
2022/11/19 03:36:53;;;;;;;7.50;4.87;;;-2.60;99.90;;;;;;5005015;28;20587;-49
2022/11/19 03:39:21;;;;;;;6.67;5.47;;;-2.60;99.90;;;;;;5023154;28;20204;-48
2022/11/19 03:41:51;;;;;;;6.50;5.50;;;-2.60;99.90;;;;;;5021466;28;20200;-55
2022/11/19 03:44:23;;;;;;;10.47;6.40;;;-2.60;99.90;;;;;;5022725;28;20263;-49
2022/11/19 03:46:57;;;;;;;5.97;4.70;;;-2.60;99.90;;;;;;5021627;28;20195;-50
2022/11/19 03:49:30;;;;;;;6.83;5.40;;;-2.60;99.90;;;;;;5024002;28;20204;-50
2022/11/19 03:52:00;;;;;;;8.53;5.80;;;-2.60;99.90;;;;;;5004395;28;20212;-51
2022/11/19 03:54:28;;;;;;;9.27;6.00;;;-2.60;99.90;;;;;;5023682;28;20219;-47
2022/11/19 03:56:57;;;;;;;6.37;5.57;;;-2.70;99.90;;;;;;5020019;28;20199;-52
2022/11/19 03:59:26;;;;;;;8.80;5.93;;;-2.60;99.90;;;;;;5021936;28;20579;-49
2022/11/19 04:01:58;;;;;;;11.03;6.63;;;-2.60;99.90;;;;;;5020413;28;20192;-49
2022/11/19 04:04:37;;;;;;;9.00;5.93;;;-2.70;99.90;;;;;;5023074;28;20220;-47
2022/11/19 04:07:09;;;;;;;9.70;6.20;;;-2.70;99.90;;;;;;5005149;28;20200;-47
2022/11/19 04:09:37;;;;;;;8.07;5.83;;;-2.70;99.90;;;;;;5023279;28;20205;-48
2022/11/19 04:12:05;;;;;;;10.17;6.40;;;-2.70;99.90;;;;;;5019141;28;20196;-47
2022/11/19 04:14:32;;;;;;;8.57;5.70;;;-2.70;99.90;;;;;;5023460;28;20227;-46
2022/11/19 04:17:01;;;;;;;8.47;6.00;;;-2.70;99.90;;;;;;5019681;28;20760;-48
2022/11/19 04:19:27;;;;;;;8.77;5.97;;;-2.60;99.90;;;;;;5023320;28;20722;-47
2022/11/19 04:21:54;;;;;;;9.97;5.70;;;-2.60;99.90;;;;;;5008182;28;20192;-47
2022/11/19 04:24:21;;;;;;;7.93;5.30;;;-2.60;99.90;;;;;;5021289;28;20285;-49
2022/11/19 04:26:48;;;;;;;9.33;6.43;;;-2.60;99.90;;;;;;5021205;28;20200;-50
2022/11/19 04:29:15;;;;;;;8.57;5.67;;;-2.70;99.90;;;;;;5019876;28;20676;-50
2022/11/19 04:31:42;;;;;;;9.57;6.10;;;-2.70;99.90;;;;;;5022839;28;20699;-51
2022/11/19 04:34:10;;;;;;;8.00;5.57;;;-2.70;99.90;;;;;;5024060;28;20273;-53
2022/11/19 04:36:38;;;;;;;8.00;5.73;;;-2.70;99.90;;;;;;5026976;28;20598;-46
2022/11/19 04:39:05;;;;;;;6.83;5.30;;;-2.80;99.90;;;;;;5009607;28;20935;-50
2022/11/19 04:41:32;;;;;;;7.53;5.27;;;-2.70;99.90;;;;;;5027074;28;20200;-46
2022/11/19 04:43:59;;;;;;;6.97;5.10;;;-2.70;99.90;;;;;;5022814;28;20196;-51
2022/11/19 04:46:27;;;;;;;7.10;5.20;;;-2.70;99.90;;;;;;5026970;28;20196;-46
2022/11/19 04:48:53;;;;;;;8.67;5.53;;;-2.70;99.90;;;;;;5023903;28;20208;-51
2022/11/19 04:51:22;;;;;;;7.90;5.43;;;-2.70;99.90;;;;;;5026524;28;20237;-48
2022/11/19 04:53:48;;;;;;;8.90;6.47;;;-2.60;99.90;;;;;;5010202;28;20215;-47
2022/11/19 04:56:16;;;;;;;8.40;5.43;;;-2.60;99.90;;;;;;5025313;28;20188;-48
2022/11/19 04:58:42;;;;;;;8.13;5.80;;;-2.50;99.90;;;;;;5026214;28;20714;-50
2022/11/19 05:01:09;;;;;;;7.70;5.20;;;-2.50;99.90;;;;;;5024315;28;20188;-50
2022/11/19 05:03:36;;;;;;;9.07;5.43;;;-2.40;99.90;;;;;;5025835;28;20734;-47
2022/11/19 05:06:03;;;;;;;6.90;5.10;;;-2.40;99.90;;;;;;5010985;28;20227;-46
2022/11/19 05:08:31;;;;;;;7.60;5.20;;;-2.40;99.90;;;;;;5010625;28;20290;-48
2022/11/19 05:10:58;;;;;;;5.90;4.73;;;-2.40;99.90;;;;;;5017506;28;20215;-51
2022/11/19 05:13:25;;;;;;;7.77;5.10;;;-2.40;99.90;;;;;;5023326;28;20208;-45
2022/11/19 05:15:52;;;;;;;8.00;5.77;;;-2.40;99.90;;;;;;5022358;28;20278;-45
2022/11/19 05:18:18;;;;;;;7.50;5.37;;;-2.40;99.90;;;;;;5024146;28;20223;-44
2022/11/19 05:20:45;;;;;;;8.10;5.57;;;-2.30;99.90;;;;;;5023443;28;20215;-49
2022/11/19 05:23:12;;;;;;;5.47;4.93;;;-2.30;99.90;;;;;;5022505;28;20202;-45
2022/11/19 05:25:40;;;;;;;7.83;5.57;;;-2.30;99.90;;;;;;5009651;28;20307;-49
2022/11/19 05:28:07;;;;;;;8.97;5.80;;;-2.30;99.90;;;;;;5014861;28;20792;-47
2022/11/19 05:30:34;;;;;;;7.37;5.53;;;-2.20;99.90;;;;;;5024661;28;20208;-48
2022/11/19 05:33:01;;;;;;;6.93;5.27;;;-2.20;99.90;;;;;;5020360;28;20191;-48
2022/11/19 05:35:29;;;;;;;7.83;5.90;;;-2.20;99.90;;;;;;5020538;28;20957;-44
2022/11/19 05:37:57;;;;;;;8.30;5.47;;;-2.10;99.90;;;;;;5024547;28;20211;-44
2022/11/19 05:40:25;;;;;;;8.97;6.10;;;-2.10;99.90;;;;;;5006034;28;20204;-46
2022/11/19 05:42:53;;;;;;;7.37;5.07;;;-2.10;99.90;;;;;;5023532;28;20254;-47
2022/11/19 05:45:20;;;;;;;8.43;5.50;;;-2.10;99.90;;;;;;5017521;28;20274;-45
2022/11/19 05:47:47;;;;;;;7.47;5.33;;;-2.00;99.90;;;;;;5022720;28;20204;-47
2022/11/19 05:50:15;;;;;;;5.93;5.10;;;-2.00;99.90;;;;;;5021958;28;20204;-49
2022/11/19 05:52:42;;;;;;;5.70;4.77;;;-2.00;99.90;;;;;;5023430;28;20761;-49
2022/11/19 05:55:09;;;;;;;7.67;4.97;;;-2.00;99.90;;;;;;5008156;28;20242;-50
2022/11/19 05:57:36;;;;;;;6.67;4.60;;;-1.90;99.90;;;;;;5022132;28;20289;-44
2022/11/19 06:00:05;;;;;;;8.40;5.10;;;-1.90;99.90;;;;;;5023943;28;20262;-46
2022/11/19 06:02:39;;;;;;;7.20;5.60;;;-1.80;99.90;;;;;;5012904;28;20487;-44
2022/11/19 06:05:07;;;;;;;9.13;5.40;;;-1.70;99.90;;;;;;5021155;28;20220;-45
2022/11/19 06:07:33;;;;;;;7.33;5.73;;;-1.70;99.90;;;;;;5021723;28;21012;-44
2022/11/19 06:10:00;;;;;;;6.90;5.13;;;-1.70;99.90;;;;;;5024200;28;20660;-48
2022/11/19 06:12:27;;;;;;;8.20;5.23;;;-1.70;99.90;;;;;;5006980;28;20955;-45
2022/11/19 06:14:54;;;;;;;5.93;4.83;;;-1.70;99.90;;;;;;5024093;28;20220;-49
2022/11/19 06:17:23;;;;;;;7.13;5.30;;;-1.60;99.90;;;;;;5013296;28;20208;-47
2022/11/19 06:19:50;;;;;;;6.10;5.40;;;-1.60;99.90;;;;;;5023687;28;20609;-48
2022/11/19 06:22:16;;;;;;;7.27;5.57;;;-1.60;99.90;;;;;;5020359;28;20686;-47
2022/11/19 06:24:43;;;;;;;7.73;5.37;;;-1.50;99.90;;;;;;5023144;28;20224;-45
2022/11/19 06:27:10;;;;;;;10.47;5.17;;;-1.50;99.90;;;;;;5007146;28;20214;-48
2022/11/19 06:29:37;;;;;;;6.97;5.40;;;-1.50;99.90;;;;;;5021975;28;20978;-46
2022/11/19 06:32:04;;;;;;;9.03;6.13;;;-1.50;99.90;;;;;;5022437;28;20215;-48
2022/11/19 06:34:32;;;;;;;9.00;6.13;;;-1.50;99.90;;;;;;5020363;28;20223;-45
2022/11/19 06:36:59;;;;;;;7.63;6.13;;;-1.60;99.90;;;;;;5020323;28;20262;-47
2022/11/19 06:39:26;;;;;;;12.53;6.63;;;-1.70;99.90;;;;;;5019623;28;20283;-44
2022/11/19 06:41:53;;;;;;;11.47;7.47;;;-1.60;99.90;;;;;;5023310;28;20896;-49
2022/11/19 06:44:20;;;;;;;12.47;8.10;;;-1.60;99.90;;;;;;5004854;28;20220;-47
2022/11/19 06:46:47;;;;;;;11.37;6.93;;;-1.60;99.90;;;;;;5023516;28;20203;-45
2022/11/19 06:49:14;;;;;;;8.93;6.77;;;-1.60;99.90;;;;;;5010577;28;20235;-47
2022/11/19 06:51:42;;;;;;;10.83;6.93;;;-1.60;99.90;;;;;;5007670;28;20220;-46
2022/11/19 06:54:10;;;;;;;10.07;7.13;;;-1.60;99.90;;;;;;5003495;28;20735;-48
2022/11/19 06:56:37;;;;;;;10.63;6.93;;;-1.60;99.90;;;;;;5015962;28;20204;-45
2022/11/19 06:59:04;;;;;;;12.00;7.50;;;-1.60;99.90;;;;;;4990366;28;20212;-48
2022/11/19 07:01:31;;;;;;;10.07;7.17;;;-1.60;99.90;;;;;;5017568;28;20200;-49
2022/11/19 07:03:58;;;;;;;8.63;5.70;;;-1.70;99.90;;;;;;5007532;28;20738;-50
2022/11/19 07:06:25;;;;;;;9.47;6.83;;;-1.70;99.90;;;;;;5005909;28;21247;-44
2022/11/19 07:08:53;;;;;;;12.30;7.20;;;-1.70;99.90;;;;;;5018335;28;20199;-50
2022/11/19 07:11:26;;;;;;;12.60;6.27;;;-1.70;99.90;;;;;;5007512;28;20303;-43
2022/11/19 07:13:56;;;;;;;10.93;6.13;;;-1.70;99.90;;;;;;4995925;28;20594;-47
2022/11/19 07:16:25;;;;;;;9.43;6.53;;;-1.70;99.90;;;;;;5009324;28;20235;-44
2022/11/19 07:18:52;;;;;;;8.47;6.40;;;-1.70;99.90;;;;;;5016605;28;20676;-50
2022/11/19 07:21:19;;;;;;;8.73;5.50;;;-1.70;99.90;;;;;;5004582;28;20197;-48
2022/11/19 07:23:46;;;;;;;8.10;6.30;;;-1.70;99.90;;;;;;5008650;28;20204;-44
2022/11/19 07:26:14;;;;;;;10.13;5.33;;;-1.70;99.90;;;;;;4996982;28;20220;-47
2022/11/19 07:28:42;;;;;;;7.00;4.57;;;-1.70;99.90;;;;;;4997833;28;20215;-46
2022/11/19 07:31:09;;;;;;;8.63;5.93;;;-1.60;99.90;;;;;;5006254;28;20274;-44
2022/11/19 07:33:38;;;;;;;7.30;5.07;;;-1.50;99.90;;;;;;5010853;28;20841;-45
2022/11/19 07:36:06;;;;;;;8.83;6.10;;;-1.50;99.90;;;;;;5011393;28;20958;-47
2022/11/19 07:38:32;;;;;;;7.17;5.63;;;-1.50;99.90;;;;;;5000386;28;20280;-44
2022/11/19 07:40:59;;;;;;;7.17;5.40;;;-1.40;99.90;;;;;;5005546;28;20208;-48
2022/11/19 07:43:26;;;;;;;6.07;4.93;;;-1.40;99.90;;;;;;4999299;28;20301;-44
2022/11/19 07:45:53;;;;;;;6.83;4.73;;;-1.30;99.90;;;;;;5008410;28;20222;-48
2022/11/19 07:48:19;;;;;;;8.93;6.00;;;-1.10;99.90;;;;;;5013286;28;20207;-45
2022/11/19 07:50:50;;;;;;;9.97;6.93;;;-1.10;99.90;;;;;;5018174;28;20196;-46
2022/11/19 07:53:17;;;;;;;7.63;6.07;;;-1.10;99.90;;;;;;4998538;28;20215;-46
2022/11/19 07:55:45;;;;;;;9.60;5.67;;;-1.00;99.90;;;;;;5014611;28;20286;-59
2022/11/19 07:58:14;;;;;;;6.60;4.97;;;-1.00;99.90;;;;;;4994189;28;20211;-59
2022/11/19 08:00:43;;;;;;;5.53;4.30;;;-0.90;99.90;;;;;;5006445;28;20837;-58
2022/11/19 08:03:11;;;;;;;6.73;4.53;;;-0.90;99.90;;;;;;5011032;28;20893;-59
2022/11/19 08:05:41;;;;;;;6.07;4.63;;;-0.80;99.90;;;;;;5019995;28;20279;-59
2022/11/19 08:08:07;;;;;;;6.57;4.63;;;-0.70;99.90;;;;;;5007632;28;20227;-59
2022/11/19 08:10:35;;;;;;;5.57;4.47;;;-0.60;99.90;;;;;;5011425;28;20230;-57
2022/11/19 08:13:04;;;;;;;4.97;4.43;;;-0.60;99.90;;;;;;5005184;28;20225;-57
2022/11/19 08:15:32;;;;;;;7.30;4.73;;;-0.50;99.90;;;;;;5000427;28;20224;-56
2022/11/19 08:18:11;;;;;;;6.27;4.50;;;-0.40;99.90;;;;;;5017515;28;20596;-58
2022/11/19 08:20:39;;;;;;;6.33;4.57;;;-0.40;99.90;;;;;;5014693;28;20292;-58
2022/11/19 08:23:07;;;;;;;6.33;4.60;;;-0.30;99.90;;;;;;5004261;28;20220;-58
2022/11/19 08:25:34;;;;;;;7.70;4.73;;;-0.30;99.90;;;;;;5010003;28;20232;-58
2022/11/19 08:28:01;;;;;;;6.10;4.70;;;-0.20;99.90;;;;;;5010361;28;20205;-58
2022/11/19 08:30:28;;;;;;;4.80;4.17;;;-0.20;99.90;;;;;;5010010;28;20327;-59
2022/11/19 08:32:55;;;;;;;7.60;4.77;;;-0.10;99.90;;;;;;4994793;28;20216;-58
2022/11/19 08:35:24;;;;;;;7.23;5.03;;;-0.10;99.90;;;;;;5019225;28;20221;-58
2022/11/19 08:37:51;;;;;;;6.53;4.53;;;0.00;99.90;;;;;;5017657;28;20200;-58
2022/11/19 08:40:18;;;;;;;8.00;4.67;;;0.10;99.90;;;;;;5002183;28;20216;-58
2022/11/19 08:42:59;;;;;;;6.53;4.53;;;0.10;99.90;;;;;;5008631;28;20700;-58
2022/11/19 08:45:27;;;;;;;4.40;4.00;;;0.20;99.90;;;;;;5004167;28;20223;-58
2022/11/19 08:47:54;;;;;;;8.00;4.30;;;0.20;99.90;;;;;;4996973;28;20648;-58
2022/11/19 08:50:23;;;;;;;6.67;4.60;;;0.30;99.90;;;;;;5014727;28;20192;-59
2022/11/19 08:52:57;;;;;;;6.80;4.20;;;0.30;99.90;;;;;;5014571;28;20218;-58
2022/11/19 08:55:26;;;;;;;8.47;4.90;;;0.40;99.90;;;;;;5011882;28;20232;-59
2022/11/19 08:57:59;;;;;;;5.73;4.93;;;0.40;99.90;;;;;;5010352;28;20705;-55
2022/11/19 09:00:26;;;;;;;5.00;4.33;;;0.40;99.90;;;;;;5004731;28;20771;-54
2022/11/19 09:02:53;;;;;;;6.80;4.40;;;0.50;99.90;;;;;;4995533;28;20218;-52
2022/11/19 09:05:20;;;;;;;5.53;4.13;;;0.50;99.90;;;;;;4993522;28;20224;-55
2022/11/19 09:07:48;;;;;;;4.43;4.00;;;0.60;99.90;;;;;;5008859;28;20199;-52
2022/11/19 09:10:16;;;;;;;7.23;4.20;;;0.60;99.90;;;;;;5009692;28;20203;-53
2022/11/19 09:12:43;;;;;;;5.50;4.30;;;0.60;99.90;;;;;;5011917;28;20224;-55
2022/11/19 09:15:10;;;;;;;5.60;4.57;;;0.70;99.90;;;;;;5012294;28;20675;-53
2022/11/19 09:17:37;;;;;;;6.70;4.60;;;0.80;99.90;;;;;;4999879;28;20190;-54
2022/11/19 09:20:06;;;;;;;5.90;4.50;;;0.80;99.90;;;;;;5007217;28;20232;-54
2022/11/19 09:22:32;;;;;;;5.83;4.23;;;0.80;99.90;;;;;;5009496;28;20215;-52
2022/11/19 09:25:01;;;;;;;5.17;3.97;;;0.80;99.90;;;;;;5005332;28;20597;-55
2022/11/19 09:27:28;;;;;;;5.53;4.53;;;0.90;99.90;;;;;;5008190;28;20214;-56
2022/11/19 09:29:55;;;;;;;6.97;4.83;;;0.90;99.90;;;;;;5023518;28;20257;-53
2022/11/19 09:32:22;;;;;;;10.47;4.20;;;1.00;99.90;;;;;;5002760;28;20579;-55
2022/11/19 09:34:49;;;;;;;10.13;5.13;;;1.00;99.90;;;;;;5006075;28;20707;-54
2022/11/19 09:37:19;;;;;;;7.17;4.53;;;1.10;99.90;;;;;;5010781;28;20688;-54
2022/11/19 09:39:45;;;;;;;6.93;4.30;;;1.10;99.90;;;;;;5008141;28;23017;-51
2022/11/19 09:42:22;;;;;;;7.20;4.43;;;1.20;99.90;;;;;;5006647;28;20550;-54
2022/11/19 09:45:07;;;;;;;5.90;4.67;;;1.20;99.90;;;;;;5008308;28;20219;-55
2022/11/19 09:47:47;;;;;;;5.13;4.63;;;1.30;99.90;;;;;;4996562;28;20202;-49
2022/11/19 09:50:18;;;;;;;5.93;4.47;;;1.30;99.90;;;;;;5005342;28;20202;-55
2022/11/19 09:52:48;;;;;;;8.07;4.10;;;1.40;99.90;;;;;;5010540;28;20433;-53
2022/11/19 09:55:19;;;;;;;6.90;4.30;;;1.40;99.90;;;;;;5013919;28;20364;-55
2022/11/19 09:57:50;;;;;;;5.10;4.10;;;1.50;99.90;;;;;;5014156;28;20203;-54
2022/11/19 10:00:20;;;;;;;6.23;4.50;;;1.50;99.90;;;;;;5009151;28;20223;-54
2022/11/19 10:02:47;;;;;;;4.43;3.67;;;1.60;99.90;;;;;;5001986;28;20211;-54
2022/11/19 10:05:15;;;;;;;5.67;4.13;;;1.70;99.90;;;;;;5008144;28;20256;-56
2022/11/19 10:07:50;;;;;;;4.20;3.80;;;1.80;99.90;;;;;;5000650;28;20538;-55
2022/11/19 10:10:27;;;;;;;4.67;3.87;;;1.90;99.90;;;;;;5018113;28;20584;-56
2022/11/19 10:13:13;;;;;;;3.97;3.63;;;1.90;99.90;;;;;;5004934;28;20501;-54
2022/11/19 10:15:52;;;;;;;4.53;3.43;;;2.00;99.90;;;;;;5004953;28;21109;-55
2022/11/19 10:18:25;;;;;;;4.47;3.90;;;2.10;99.90;;;;;;5002259;28;20219;-56
2022/11/19 10:21:00;;;;;;;6.60;3.53;;;2.10;99.90;;;;;;5016399;28;20225;-53
2022/11/19 10:23:37;;;;;;;3.80;3.40;;;2.20;99.90;;;;;;5000000;28;20603;-55
2022/11/19 10:26:09;;;;;;;4.67;3.20;;;2.30;99.90;;;;;;5015493;28;20243;-53
2022/11/19 10:28:40;;;;;;;4.53;3.67;;;2.30;99.90;;;;;;5008794;28;20211;-51
2022/11/19 10:31:13;;;;;;;6.33;3.47;;;2.40;99.90;;;;;;5013857;28;20240;-54
2022/11/19 10:33:48;;;;;;;3.73;3.43;;;2.50;99.90;;;;;;5003979;28;20443;-51
2022/11/19 10:36:21;;;;;;;5.17;3.57;;;2.50;99.90;;;;;;5012141;28;20576;-52
2022/11/19 10:38:54;;;;;;;7.07;3.23;;;2.60;99.90;;;;;;5006892;28;20208;-55
2022/11/19 10:41:29;;;;;;;8.30;3.50;;;2.60;99.90;;;;;;5015748;28;20204;-54
2022/11/19 10:44:01;;;;;;;3.83;2.77;;;2.70;99.90;;;;;;5019184;28;20227;-53
2022/11/19 10:46:28;;;;;;;5.73;3.40;;;2.70;99.90;;;;;;5012762;28;20223;-53
2022/11/19 10:48:58;;;;;;;4.23;2.63;;;2.70;99.90;;;;;;5022221;28;20203;-50
2022/11/19 10:51:29;;;;;;;4.23;3.07;;;2.80;99.90;;;;;;5014328;28;20563;-55
2022/11/19 10:53:57;;;;;;;3.30;2.33;;;2.80;99.90;;;;;;5006464;28;20227;-49
2022/11/19 10:56:30;;;;;;;2.67;2.20;;;2.90;99.90;;;;;;5015158;28;20204;-53
2022/11/19 10:59:05;;;;;;;3.17;2.63;;;2.90;99.90;;;;;;5007862;28;20208;-53
2022/11/19 11:01:37;;;;;;;13.40;2.33;;;3.00;99.90;;;;;;5009389;28;20216;-53
2022/11/19 11:04:07;;;;;;;4.83;2.37;;;3.10;99.90;;;;;;5013801;28;20208;-48
2022/11/19 11:06:51;;;;;;;2.70;2.23;;;3.20;99.90;;;;;;5008940;28;20201;-53
2022/11/19 11:09:33;;;;;;;5.20;2.50;;;3.30;99.90;;;;;;4998776;28;20262;-51
2022/11/19 11:14:58;;;;;;;3.17;2.20;;;3.40;99.90;;;;;;5008193;28;20258;-50
2022/11/19 11:17:27;;;;;;;10.70;2.50;;;3.50;99.90;;;;;;5012100;28;20205;-51
2022/11/19 11:19:59;;;;;;;3.47;2.30;;;3.60;99.90;;;;;;5019341;28;20219;-49
2022/11/19 11:22:26;;;;;;;4.37;1.87;;;3.60;99.90;;;;;;5011073;28;20672;-55
2022/11/19 11:24:53;;;;;;;2.47;1.93;;;3.70;99.90;;;;;;4995163;28;20237;-54
2022/11/19 11:27:22;;;;;;;2.40;2.07;;;3.80;99.90;;;;;;5011631;28;20621;-52
2022/11/19 11:29:48;;;;;;;3.10;2.27;;;3.80;99.90;;;;;;5002350;28;20672;-53
2022/11/19 11:32:30;;;;;;;4.30;1.70;;;3.90;99.90;;;;;;5014676;28;20300;-53
2022/11/19 11:34:58;;;;;;;2.23;1.50;;;3.90;99.90;;;;;;5001049;28;20496;-56
2022/11/19 11:37:26;;;;;;;2.47;1.60;;;3.90;99.90;;;;;;5010411;28;20330;-53
2022/11/19 11:39:55;;;;;;;3.97;1.70;;;4.00;99.90;;;;;;4999927;28;20263;-56
2022/11/19 11:42:25;;;;;;;2.27;1.60;;;4.00;99.90;;;;;;5021101;28;20196;-55
2022/11/19 11:44:54;;;;;;;3.33;1.80;;;3.90;99.90;;;;;;5011107;28;20363;-54
2022/11/19 11:47:25;;;;;;;1.90;1.40;;;3.90;99.90;;;;;;5015012;28;20236;-49
2022/11/19 11:50:05;;;;;;;1.80;1.50;;;3.90;99.90;;;;;;5013321;28;20196;-52
2022/11/19 11:52:35;;;;;;;3.17;1.70;;;3.80;99.90;;;;;;5008874;28;20570;-55
2022/11/19 11:55:05;;;;;;;2.80;2.03;;;3.80;99.90;;;;;;5015330;28;20308;-52
2022/11/19 11:57:34;;;;;;;1.70;1.60;;;3.70;99.90;;;;;;5004930;28;20330;-56
2022/11/19 12:00:04;;;;;;;3.20;1.73;;;3.80;99.90;;;;;;5019220;28;20258;-54
2022/11/19 12:02:33;;;;;;;2.23;1.67;;;3.80;99.90;;;;;;5011261;28;20269;-53
2022/11/19 12:05:04;;;;;;;2.73;2.10;;;3.90;99.90;;;;;;5018247;28;20588;-55
2022/11/19 12:07:58;;;;;;;2.07;1.80;;;3.90;99.90;;;;;;5019594;28;20196;-55
2022/11/19 12:10:29;;;;;;;3.97;1.80;;;4.00;99.90;;;;;;5018483;28;20247;-55
2022/11/19 12:13:28;;;;;;;2.70;1.57;;;4.00;99.90;;;;;;5005848;28;20958;-54
2022/11/19 12:16:03;;;;;;;1.97;1.80;;;4.00;99.90;;;;;;5017613;28;20211;-56
2022/11/19 12:18:38;;;;;;;3.93;1.70;;;4.10;99.90;;;;;;5005750;28;20210;-57
2022/11/19 12:21:10;;;;;;;1.90;1.70;;;4.10;99.90;;;;;;5014079;28;20258;-55
2022/11/19 12:23:58;;;;;;;2.47;1.60;;;4.10;99.90;;;;;;5007159;28;20735;-55
2022/11/19 12:26:36;;;;;;;1.90;1.80;;;4.20;99.90;;;;;;5005990;28;20267;-56
2022/11/19 12:29:14;;;;;;;1.70;1.43;;;4.20;99.90;;;;;;5008891;28;20208;-56
2022/11/19 12:31:57;;;;;;;2.10;1.80;;;4.30;99.90;;;;;;5011388;28;20265;-55
2022/11/19 12:34:50;;;;;;;5.97;2.13;;;4.30;99.90;;;;;;5014348;28;20227;-56
2022/11/19 12:37:32;;;;;;;1.70;1.60;;;4.40;99.90;;;;;;5007075;28;20208;-54
2022/11/19 12:40:10;;;;;;;3.13;1.70;;;4.40;99.90;;;;;;5004203;28;20204;-53
2022/11/19 12:42:49;;;;;;;1.20;1.10;;;4.50;99.90;;;;;;5003019;28;20211;-54
2022/11/19 12:45:29;;;;;;;2.70;1.23;;;4.50;99.90;;;;;;5021119;28;20703;-55
2022/11/19 12:48:23;;;;;;;1.73;1.13;;;4.50;99.90;;;;;;5019798;28;20200;-55
2022/11/19 12:50:56;;;;;;;2.97;1.20;;;4.40;99.90;;;;;;5019775;28;20200;-48
2022/11/19 12:53:48;;;;;;;1.90;1.07;;;4.40;99.90;;;;;;5016339;28;20215;-58
2022/11/19 12:56:30;;;;;;;1.50;1.03;;;4.40;99.90;;;;;;5019889;28;20230;-58
2022/11/19 12:59:10;;;;;;;2.97;1.13;;;4.40;99.90;;;;;;5009546;28;20215;-58
2022/11/19 13:01:41;;;;;;;1.97;1.07;;;4.40;99.90;;;;;;5013959;28;20210;-58
2022/11/19 13:04:16;;;;;;;2.37;1.30;;;4.40;99.90;;;;;;5024101;28;20196;-58
2022/11/19 13:06:48;;;;;;;1.70;1.17;;;4.40;99.90;;;;;;5017151;28;20202;-58
2022/11/19 13:09:21;;;;;;;1.73;1.37;;;4.50;99.90;;;;;;5012633;28;20325;-58
2022/11/19 13:11:54;;;;;;;1.57;1.20;;;4.50;99.90;;;;;;5023949;28;20204;-58
2022/11/19 13:14:30;;;;;;;1.97;1.10;;;4.50;99.90;;;;;;5009399;28;20220;-58
2022/11/19 13:16:58;;;;;;;1.50;1.20;;;4.50;99.90;;;;;;5026324;28;20234;-58
2022/11/19 13:19:31;;;;;;;1.23;1.13;;;4.40;99.90;;;;;;5017561;28;20207;-58